Time;durP1;ratioP1;P1;durP2;ratioP2;P2;SDS_P1;SDS_P2;PMS_P1;PMS_P2;Temp;Humidity;BMP_temperature;BMP_pressure;BME280_temperature;BME280_humidity;BME280_pressure;Samples;Min_cycle;Max_cycle;Signal;HPM_P1;HPM_P2
2023/03/02 00:01:43;;;;;;;9.57;5.28;;;-0.20;86.50;;;;;;5093913;28;20205;-63
2023/03/02 00:04:16;;;;;;;5.93;5.20;;;-0.20;86.90;;;;;;5093576;28;20181;-60
2023/03/02 00:06:43;;;;;;;6.72;5.30;;;-0.20;87.40;;;;;;5093424;28;20181;-64
2023/03/02 00:09:09;;;;;;;7.85;5.25;;;-0.20;88.90;;;;;;5093277;28;20594;-62
2023/03/02 00:11:38;;;;;;;8.63;5.20;;;-0.20;89.20;;;;;;5092927;28;20212;-62
2023/03/02 00:14:06;;;;;;;8.23;6.00;;;-0.20;88.90;;;;;;5093237;28;20204;-61
2023/03/02 00:16:33;;;;;;;8.45;6.10;;;-0.20;89.20;;;;;;5093127;28;20220;-64
2023/03/02 00:19:00;;;;;;;10.45;5.82;;;-0.20;89.50;;;;;;5092606;28;20216;-62
2023/03/02 00:21:27;;;;;;;7.95;5.50;;;-0.20;89.90;;;;;;5093154;28;20207;-63
2023/03/02 00:23:54;;;;;;;8.27;5.85;;;-0.20;89.80;;;;;;5092950;28;20251;-62
2023/03/02 00:26:20;;;;;;;6.68;5.80;;;-0.20;90.20;;;;;;5093899;28;20200;-65
2023/03/02 00:28:47;;;;;;;9.20;5.95;;;-0.20;90.30;;;;;;5097746;28;20216;-62
2023/03/02 00:31:15;;;;;;;10.18;6.95;;;-0.30;90.50;;;;;;5097469;28;20204;-61
2023/03/02 00:33:42;;;;;;;10.10;6.22;;;-0.30;90.70;;;;;;5097000;28;20673;-62
2023/03/02 00:36:15;;;;;;;8.23;5.55;;;-0.30;91.00;;;;;;5096978;28;20314;-62
2023/03/02 00:38:42;;;;;;;9.32;5.93;;;-0.30;91.10;;;;;;5097221;28;20212;-63
2023/03/02 00:41:10;;;;;;;9.45;7.30;;;-0.40;91.30;;;;;;5097371;28;20583;-63
2023/03/02 00:43:37;;;;;;;7.85;6.05;;;-0.40;91.80;;;;;;5097527;28;20208;-62
2023/03/02 00:46:09;;;;;;;9.20;5.50;;;-0.40;92.00;;;;;;5096742;28;20203;-59
2023/03/02 00:48:37;;;;;;;8.38;5.75;;;-0.40;92.10;;;;;;5097060;28;20189;-63
2023/03/02 00:51:05;;;;;;;5.45;4.80;;;-0.50;92.20;;;;;;5096704;28;20200;-62
2023/03/02 00:53:32;;;;;;;10.95;5.80;;;-0.50;92.40;;;;;;5096678;28;20226;-62
2023/03/02 00:55:59;;;;;;;9.60;6.00;;;-0.50;92.50;;;;;;5096624;28;20224;-62
2023/03/02 00:58:26;;;;;;;11.73;6.22;;;-0.60;92.90;;;;;;5096069;28;20254;-62
2023/03/02 01:00:53;;;;;;;6.88;5.78;;;-0.60;93.20;;;;;;5096690;28;20201;-60
2023/03/02 01:03:20;;;;;;;8.98;5.82;;;-0.60;93.60;;;;;;5097013;28;20203;-62
2023/03/02 01:05:54;;;;;;;7.25;5.28;;;-0.60;93.60;;;;;;5097183;28;20577;-62
2023/03/02 01:08:20;;;;;;;12.43;6.55;;;-0.60;93.80;;;;;;5097352;28;20583;-61
2023/03/02 01:10:47;;;;;;;8.68;6.05;;;-0.60;94.00;;;;;;5097326;28;20231;-62
2023/03/02 01:13:14;;;;;;;7.78;5.07;;;-0.60;94.20;;;;;;5096867;28;20200;-62
2023/03/02 01:15:41;;;;;;;8.43;5.70;;;-0.60;94.40;;;;;;5096526;28;20208;-62
2023/03/02 01:18:07;;;;;;;6.78;5.40;;;-0.70;94.60;;;;;;5097353;28;20211;-60
2023/03/02 01:20:34;;;;;;;6.43;5.72;;;-0.70;94.90;;;;;;5096677;28;20721;-62
2023/03/02 01:23:02;;;;;;;10.32;5.65;;;-0.70;95.10;;;;;;5096078;28;20516;-61
2023/03/02 01:25:29;;;;;;;7.55;6.03;;;-0.70;95.30;;;;;;5096984;28;20205;-61
2023/03/02 01:27:57;;;;;;;7.25;5.55;;;-0.70;95.50;;;;;;5097116;28;20220;-60
2023/03/02 01:30:24;;;;;;;9.35;6.22;;;-0.70;95.60;;;;;;5097087;28;20613;-60
2023/03/02 01:32:50;;;;;;;7.40;5.70;;;-0.80;95.80;;;;;;5096431;28;20207;-61
2023/03/02 01:35:17;;;;;;;9.20;5.90;;;-0.80;96.10;;;;;;5095953;28;20282;-62
2023/03/02 01:37:44;;;;;;;12.75;6.38;;;-0.80;96.40;;;;;;5094981;28;20295;-62
2023/03/02 01:40:14;;;;;;;9.60;6.30;;;-0.80;96.40;;;;;;5096279;28;20224;-62
2023/03/02 01:42:46;;;;;;;9.35;5.70;;;-0.80;96.60;;;;;;5096509;28;20200;-58
2023/03/02 01:45:44;;;;;;;8.57;6.32;;;-0.80;96.80;;;;;;5096191;28;20192;-62
2023/03/02 01:48:14;;;;;;;9.35;6.57;;;-0.80;97.10;;;;;;5095414;28;20201;-61
2023/03/02 01:50:40;;;;;;;8.70;6.30;;;-0.80;97.30;;;;;;5095632;28;20247;-62
2023/03/02 01:53:08;;;;;;;6.22;4.88;;;-0.90;97.40;;;;;;5095196;28;20695;-61
2023/03/02 01:55:38;;;;;;;7.97;6.55;;;-0.90;97.40;;;;;;5095575;28;20577;-61
2023/03/02 01:58:05;;;;;;;10.20;6.47;;;-0.90;97.80;;;;;;5095455;28;20200;-60
2023/03/02 02:00:36;;;;;;;8.75;6.10;;;-0.90;98.10;;;;;;5095447;28;20220;-61
2023/03/02 02:03:08;;;;;;;9.40;6.53;;;-0.90;98.10;;;;;;5095045;28;20610;-61
2023/03/02 02:05:38;;;;;;;11.23;6.70;;;-0.90;98.20;;;;;;5095699;28;20180;-62
2023/03/02 02:08:05;;;;;;;8.60;5.88;;;-0.90;98.30;;;;;;5095857;28;20204;-61
2023/03/02 02:10:33;;;;;;;8.85;6.65;;;-1.00;98.50;;;;;;5095239;28;20232;-62
2023/03/02 02:13:01;;;;;;;8.63;6.55;;;-1.00;98.90;;;;;;5095236;28;20696;-61
2023/03/02 02:15:28;;;;;;;11.55;6.72;;;-1.00;99.10;;;;;;5095481;28;20200;-61
2023/03/02 02:17:55;;;;;;;8.90;6.05;;;-1.00;99.50;;;;;;5095299;28;20221;-62
2023/03/02 02:20:28;;;;;;;10.00;6.25;;;-1.00;99.80;;;;;;5095237;28;20216;-61
2023/03/02 02:23:09;;;;;;;10.63;6.45;;;-1.00;99.90;;;;;;5094926;28;20642;-61
2023/03/02 02:25:47;;;;;;;10.38;6.82;;;-1.10;99.90;;;;;;5095427;28;20187;-61
2023/03/02 02:28:21;;;;;;;10.98;7.35;;;-1.10;99.90;;;;;;5095313;28;20694;-62
2023/03/02 02:30:53;;;;;;;11.30;7.35;;;-1.10;99.90;;;;;;5095756;28;20224;-62
2023/03/02 02:33:24;;;;;;;12.13;7.45;;;-1.10;99.90;;;;;;5094998;28;20185;-62
2023/03/02 02:35:55;;;;;;;13.88;7.65;;;-1.10;99.90;;;;;;5094681;28;20189;-59
2023/03/02 02:38:22;;;;;;;12.05;7.93;;;-1.10;99.90;;;;;;5094854;28;20185;-63
2023/03/02 02:40:52;;;;;;;12.55;7.63;;;-1.10;99.90;;;;;;5094787;28;20227;-63
2023/03/02 02:43:22;;;;;;;11.68;7.40;;;-1.10;99.90;;;;;;5094549;28;20678;-63
2023/03/02 02:45:51;;;;;;;12.07;8.45;;;-1.10;99.90;;;;;;5094932;28;20227;-62
2023/03/02 02:48:21;;;;;;;13.23;9.48;;;-1.10;99.90;;;;;;5094560;28;20200;-61
2023/03/02 02:50:52;;;;;;;15.57;7.90;;;-1.10;99.90;;;;;;5093731;28;20586;-61
2023/03/02 02:53:22;;;;;;;15.85;9.63;;;-1.10;99.90;;;;;;5094761;28;20234;-62
2023/03/02 02:55:51;;;;;;;11.85;8.13;;;-1.10;99.90;;;;;;5094503;28;20204;-61
2023/03/02 02:58:28;;;;;;;17.15;9.45;;;-1.10;99.90;;;;;;5094528;28;20223;-62
2023/03/02 03:00:55;;;;;;;19.40;12.13;;;-1.10;99.90;;;;;;5095365;28;20184;-61
2023/03/02 03:03:30;;;;;;;19.60;11.32;;;-1.10;99.90;;;;;;5094717;28;20206;-62
2023/03/02 03:05:58;;;;;;;21.02;11.68;;;-1.10;99.90;;;;;;5095491;28;20549;-62
2023/03/02 03:08:52;;;;;;;17.48;10.43;;;-1.10;99.90;;;;;;5094263;28;20269;-61
2023/03/02 03:11:23;;;;;;;18.42;11.95;;;-1.10;99.90;;;;;;5093721;28;20702;-61
2023/03/02 03:13:55;;;;;;;17.92;10.50;;;-1.10;99.90;;;;;;5094019;28;20198;-61
2023/03/02 03:16:25;;;;;;;15.85;11.00;;;-1.20;99.90;;;;;;5094163;28;20187;-62
2023/03/02 03:18:53;;;;;;;18.17;11.73;;;-1.20;99.90;;;;;;5094147;28;20220;-62
2023/03/02 03:21:20;;;;;;;22.73;11.82;;;-1.20;99.90;;;;;;5093650;28;20222;-62
2023/03/02 03:23:48;;;;;;;20.08;13.18;;;-1.20;99.90;;;;;;5093988;28;20196;-62
2023/03/02 03:26:15;;;;;;;18.13;11.30;;;-1.30;99.90;;;;;;5093525;28;20235;-63
2023/03/02 03:28:42;;;;;;;19.88;12.63;;;-1.30;99.90;;;;;;5093535;28;20207;-63
2023/03/02 03:31:10;;;;;;;22.52;12.98;;;-1.30;99.90;;;;;;5093458;28;20703;-62
2023/03/02 03:33:37;;;;;;;29.05;13.68;;;-1.40;99.90;;;;;;5093853;28;20227;-62
2023/03/02 03:36:05;;;;;;;23.80;13.25;;;-1.40;99.90;;;;;;5093783;28;20196;-61
2023/03/02 03:38:31;;;;;;;22.33;12.52;;;-1.40;99.90;;;;;;5093742;28;20220;-62
2023/03/02 03:40:58;;;;;;;33.20;14.82;;;-1.50;99.90;;;;;;5094194;28;20216;-63
2023/03/02 03:43:25;;;;;;;23.58;14.80;;;-1.50;99.90;;;;;;5093742;28;20204;-63
2023/03/02 03:45:52;;;;;;;25.08;13.63;;;-1.50;99.90;;;;;;5093646;28;20208;-63
2023/03/02 03:48:20;;;;;;;22.70;14.13;;;-1.40;99.90;;;;;;5093528;28;20204;-64
2023/03/02 03:50:47;;;;;;;26.70;14.68;;;-1.40;99.90;;;;;;5093413;28;20224;-63
2023/03/02 03:53:13;;;;;;;24.38;14.30;;;-1.40;99.90;;;;;;5093578;28;20212;-62
2023/03/02 03:55:40;;;;;;;28.15;16.08;;;-1.40;99.90;;;;;;5093573;28;20206;-63
2023/03/02 03:58:07;;;;;;;39.97;15.82;;;-1.40;99.90;;;;;;5092904;28;20220;-62
2023/03/02 04:00:34;;;;;;;30.38;16.92;;;-1.40;99.90;;;;;;5092932;28;20224;-63
2023/03/02 04:03:01;;;;;;;27.42;14.45;;;-1.30;99.90;;;;;;5093210;28;20201;-63
2023/03/02 04:05:29;;;;;;;27.63;14.93;;;-1.30;99.90;;;;;;5093383;28;20211;-63
2023/03/02 04:11:16;;;;;;;33.25;16.00;;;-1.30;99.90;;;;;;5091445;27;20875;-61
2023/03/02 04:13:43;;;;;;;37.70;16.05;;;-1.30;99.90;;;;;;5090775;28;20207;-63
2023/03/02 04:16:10;;;;;;;39.42;18.80;;;-1.30;99.90;;;;;;5090828;28;20200;-64
2023/03/02 04:18:37;;;;;;;64.20;18.10;;;-1.30;99.90;;;;;;5090482;28;20207;-64
2023/03/02 04:21:04;;;;;;;34.17;17.60;;;-1.20;99.90;;;;;;5090433;28;20192;-63
2023/03/02 04:23:30;;;;;;;34.67;16.45;;;-1.20;99.90;;;;;;5090440;28;20200;-63
2023/03/02 04:25:57;;;;;;;48.17;18.73;;;-1.20;99.90;;;;;;5090509;28;20212;-63
2023/03/02 04:28:25;;;;;;;38.13;18.38;;;-1.20;99.90;;;;;;5090566;28;20283;-62
2023/03/02 04:30:52;;;;;;;41.15;19.08;;;-1.20;99.90;;;;;;5091389;28;20242;-62
2023/03/02 04:33:19;;;;;;;43.70;17.77;;;-1.20;99.90;;;;;;5091454;28;20226;-64
2023/03/02 04:35:46;;;;;;;43.38;19.60;;;-1.20;99.90;;;;;;5090590;28;20212;-63
2023/03/02 04:38:13;;;;;;;30.15;16.50;;;-1.20;99.90;;;;;;5090143;28;20319;-62
2023/03/02 04:40:39;;;;;;;39.58;20.88;;;-1.10;99.90;;;;;;5090516;28;20661;-62
2023/03/02 04:43:06;;;;;;;32.65;16.90;;;-1.10;99.90;;;;;;5090123;28;20211;-64
2023/03/02 04:45:34;;;;;;;32.58;17.45;;;-1.00;99.90;;;;;;5090352;28;20211;-64
2023/03/02 04:48:01;;;;;;;35.58;18.40;;;-1.00;99.90;;;;;;5090588;28;20204;-64
2023/03/02 04:50:28;;;;;;;40.28;17.80;;;-1.00;99.90;;;;;;5090599;28;20226;-63
2023/03/02 04:52:55;;;;;;;54.22;18.33;;;-1.00;99.90;;;;;;5090446;28;20207;-64
2023/03/02 04:55:25;;;;;;;42.45;19.55;;;-1.00;99.90;;;;;;5091373;28;20658;-64
2023/03/02 04:57:52;;;;;;;60.15;20.15;;;-1.00;99.90;;;;;;5090181;28;20209;-64
2023/03/02 05:00:20;;;;;;;47.15;17.40;;;-1.00;99.90;;;;;;5091379;28;20220;-62
2023/03/02 05:02:48;;;;;;;40.97;18.27;;;-1.00;99.90;;;;;;5090751;28;20257;-64
2023/03/02 05:05:17;;;;;;;47.88;19.05;;;-0.90;99.90;;;;;;5091277;28;20200;-63
2023/03/02 05:07:44;;;;;;;42.13;19.10;;;-0.90;99.90;;;;;;5090351;28;20205;-63
2023/03/02 05:10:12;;;;;;;33.33;18.23;;;-0.90;99.90;;;;;;5090421;28;20234;-61
2023/03/02 05:12:53;;;;;;;34.58;19.40;;;-0.90;99.90;;;;;;5090533;28;20209;-62
2023/03/02 05:15:20;;;;;;;44.38;19.13;;;-0.80;99.90;;;;;;5090658;28;20189;-61
2023/03/02 05:17:48;;;;;;;34.38;16.70;;;-0.70;99.90;;;;;;5090156;28;20200;-62
2023/03/02 05:20:16;;;;;;;32.50;17.33;;;-0.70;99.90;;;;;;5090153;28;20238;-62
2023/03/02 05:22:42;;;;;;;43.42;19.58;;;-0.70;99.90;;;;;;5075744;28;20213;-62
2023/03/02 05:25:09;;;;;;;44.90;19.77;;;-0.70;99.90;;;;;;5076330;28;20209;-64
2023/03/02 05:27:36;;;;;;;37.40;19.13;;;-0.70;99.90;;;;;;5076593;28;20208;-63
2023/03/02 05:30:03;;;;;;;43.35;18.63;;;-0.70;99.90;;;;;;5076564;28;20224;-63
2023/03/02 05:32:30;;;;;;;52.85;20.90;;;-0.70;99.90;;;;;;5076365;28;20202;-64
2023/03/02 05:34:59;;;;;;;53.35;20.17;;;-0.70;99.90;;;;;;5077258;28;20252;-64
2023/03/02 05:37:26;;;;;;;41.63;18.17;;;-0.80;99.90;;;;;;5075950;28;20197;-64
2023/03/02 05:39:52;;;;;;;42.30;19.98;;;-0.70;99.90;;;;;;5076371;28;20224;-64
2023/03/02 05:42:19;;;;;;;36.97;19.33;;;-0.80;99.90;;;;;;5091389;22;20252;-60
2023/03/02 05:44:46;;;;;;;61.67;20.90;;;-0.70;99.90;;;;;;5037226;28;20241;-64
2023/03/02 05:47:13;;;;;;;37.00;18.75;;;-0.70;99.90;;;;;;5036232;28;20679;-62
2023/03/02 05:49:39;;;;;;;34.83;19.60;;;-0.70;99.90;;;;;;5033795;28;20211;-61
2023/03/02 05:52:07;;;;;;;47.13;19.60;;;-0.70;99.90;;;;;;5036048;28;20242;-62
2023/03/02 05:54:34;;;;;;;35.78;18.42;;;-0.70;99.90;;;;;;5034031;28;20213;-61
2023/03/02 05:57:01;;;;;;;36.22;19.35;;;-0.70;99.90;;;;;;5007928;28;20203;-62
2023/03/02 05:59:27;;;;;;;37.75;19.40;;;-0.70;99.90;;;;;;5012677;28;20211;-62
2023/03/02 06:01:57;;;;;;;32.67;17.02;;;-0.70;99.90;;;;;;5014405;28;20207;-62
2023/03/02 06:04:24;;;;;;;37.67;17.48;;;-0.70;99.90;;;;;;5019117;28;20235;-62
2023/03/02 06:06:51;;;;;;;35.33;18.02;;;-0.70;99.90;;;;;;5014996;28;20579;-62
2023/03/02 06:09:19;;;;;;;33.17;18.05;;;-0.60;99.90;;;;;;5015803;28;20627;-62
2023/03/02 06:11:46;;;;;;;31.27;17.10;;;-0.60;99.90;;;;;;5011654;28;20641;-62
2023/03/02 06:14:13;;;;;;;43.28;19.05;;;-0.60;99.90;;;;;;5009281;28;20219;-62
2023/03/02 06:16:40;;;;;;;43.03;19.77;;;-0.60;99.90;;;;;;5016726;28;20660;-61
2023/03/02 06:19:06;;;;;;;35.70;18.25;;;-0.50;99.90;;;;;;5024947;28;20203;-61
2023/03/02 06:21:33;;;;;;;43.92;19.13;;;-0.50;99.90;;;;;;5015723;28;20225;-61
2023/03/02 06:24:00;;;;;;;38.25;20.20;;;-0.50;99.90;;;;;;5009823;28;20243;-61
2023/03/02 06:26:28;;;;;;;30.90;17.30;;;-0.40;99.90;;;;;;5015634;28;20206;-58
2023/03/02 06:28:55;;;;;;;31.98;18.42;;;-0.40;99.90;;;;;;5020703;28;20237;-60
2023/03/02 06:31:22;;;;;;;36.53;17.25;;;-0.30;99.90;;;;;;5036009;28;20215;-63
2023/03/02 06:33:48;;;;;;;27.92;17.38;;;-0.30;99.90;;;;;;5024898;28;20227;-62
2023/03/02 06:36:15;;;;;;;48.92;19.83;;;-0.30;99.90;;;;;;5035319;28;20270;-61
2023/03/02 06:38:42;;;;;;;33.40;17.75;;;-0.30;99.90;;;;;;5027179;28;20228;-62
2023/03/02 06:41:09;;;;;;;31.88;16.70;;;-0.30;99.90;;;;;;5028165;28;20202;-62
2023/03/02 06:43:37;;;;;;;49.60;18.38;;;-0.30;99.90;;;;;;5035738;28;20576;-62
2023/03/02 06:46:04;;;;;;;37.67;18.52;;;-0.30;99.90;;;;;;5030376;28;20601;-60
2023/03/02 06:48:31;;;;;;;42.67;18.67;;;-0.30;99.90;;;;;;5017971;28;20206;-61
2023/03/02 06:50:58;;;;;;;28.92;17.83;;;-0.30;99.90;;;;;;5016412;28;20226;-61
2023/03/02 06:53:25;;;;;;;32.30;16.13;;;-0.30;99.90;;;;;;5019164;28;20222;-61
2023/03/02 06:55:52;;;;;;;30.38;17.77;;;-0.30;99.90;;;;;;5015109;28;20289;-61
2023/03/02 06:58:18;;;;;;;44.50;16.95;;;-0.30;99.90;;;;;;5015031;28;20199;-61
2023/03/02 07:00:47;;;;;;;29.17;15.68;;;-0.30;99.90;;;;;;5014815;28;20203;-60
2023/03/02 07:03:13;;;;;;;40.45;17.58;;;-0.20;99.90;;;;;;5014909;28;20254;-62
2023/03/02 07:05:40;;;;;;;39.13;18.15;;;-0.20;99.90;;;;;;5016525;28;20215;-61
2023/03/02 07:08:07;;;;;;;39.00;16.48;;;-0.20;99.90;;;;;;5015995;28;20206;-62
2023/03/02 07:10:34;;;;;;;45.03;18.70;;;-0.20;99.90;;;;;;5015430;28;20227;-62
2023/03/02 07:13:01;;;;;;;38.08;15.90;;;-0.20;99.90;;;;;;5015101;28;20701;-61
2023/03/02 07:15:28;;;;;;;40.67;17.50;;;-0.20;99.90;;;;;;5014641;28;20669;-60
2023/03/02 07:17:56;;;;;;;27.63;16.38;;;-0.30;99.90;;;;;;5014720;28;20672;-62
2023/03/02 07:20:23;;;;;;;31.63;17.15;;;-0.20;99.90;;;;;;5014794;28;20198;-61
2023/03/02 07:22:50;;;;;;;33.08;17.85;;;-0.10;99.90;;;;;;5016893;28;20219;-62
2023/03/02 07:25:17;;;;;;;38.03;17.48;;;0.00;99.90;;;;;;5015002;28;20203;-63
2023/03/02 07:27:44;;;;;;;35.30;18.30;;;0.00;99.90;;;;;;5014554;28;20642;-62
2023/03/02 07:30:13;;;;;;;42.28;18.63;;;0.00;99.90;;;;;;5014942;28;20226;-61
2023/03/02 07:32:40;;;;;;;26.40;15.73;;;0.00;99.90;;;;;;5015009;28;20230;-61
2023/03/02 07:35:10;;;;;;;31.23;18.52;;;0.00;99.90;;;;;;5014903;28;20214;-62
2023/03/02 07:37:36;;;;;;;43.30;17.77;;;0.00;99.90;;;;;;5017041;28;20210;-59
2023/03/02 07:40:05;;;;;;;34.90;18.10;;;0.10;99.90;;;;;;5019016;28;20210;-63
2023/03/02 07:42:32;;;;;;;32.15;17.60;;;0.10;99.90;;;;;;5020716;28;20219;-62
2023/03/02 07:44:59;;;;;;;35.38;17.50;;;0.10;99.90;;;;;;5020765;28;20192;-61
2023/03/02 07:47:25;;;;;;;36.15;19.50;;;0.20;99.90;;;;;;5022403;28;20237;-60
2023/03/02 07:49:55;;;;;;;42.25;19.63;;;0.20;99.90;;;;;;5025301;28;20191;-62
2023/03/02 07:52:24;;;;;;;33.20;18.98;;;0.20;99.90;;;;;;5025043;28;20199;-61
2023/03/02 07:54:51;;;;;;;32.03;16.50;;;0.40;99.90;;;;;;5020823;28;20290;-60
2023/03/02 07:57:17;;;;;;;30.55;16.88;;;0.40;99.90;;;;;;5020936;28;20215;-61
2023/03/02 07:59:44;;;;;;;26.30;14.90;;;0.50;99.90;;;;;;5025343;28;20226;-61
2023/03/02 08:02:14;;;;;;;31.85;17.20;;;0.50;99.90;;;;;;5026432;28;20199;-61
2023/03/02 08:04:41;;;;;;;26.98;16.02;;;0.50;99.90;;;;;;5025556;28;20203;-61
2023/03/02 08:07:08;;;;;;;24.38;15.18;;;0.60;99.90;;;;;;5026339;28;20203;-62
2023/03/02 08:09:38;;;;;;;26.38;16.85;;;0.60;99.90;;;;;;5022027;28;20203;-61
2023/03/02 08:12:05;;;;;;;27.33;15.63;;;0.60;99.90;;;;;;5017282;28;20219;-61
2023/03/02 08:14:53;;;;;;;27.13;16.05;;;0.70;99.90;;;;;;5017218;28;20275;-61
2023/03/02 08:17:20;;;;;;;27.55;14.80;;;0.60;99.90;;;;;;5015551;28;20241;-60
2023/03/02 08:19:47;;;;;;;27.88;14.75;;;0.70;99.90;;;;;;5014664;28;20203;-60
2023/03/02 08:22:14;;;;;;;25.30;14.48;;;0.60;99.90;;;;;;5014655;28;20205;-59
2023/03/02 08:24:42;;;;;;;24.95;15.18;;;0.60;99.90;;;;;;5014099;28;20199;-60
2023/03/02 08:27:12;;;;;;;28.33;14.90;;;0.70;99.90;;;;;;5014843;28;20293;-60
2023/03/02 08:29:39;;;;;;;24.30;14.77;;;0.70;99.90;;;;;;5015008;28;20187;-60
2023/03/02 08:32:06;;;;;;;27.30;15.13;;;0.80;99.90;;;;;;5019461;28;20246;-60
2023/03/02 08:34:33;;;;;;;28.80;15.98;;;0.80;99.90;;;;;;5017488;28;20214;-60
2023/03/02 08:37:00;;;;;;;28.85;15.25;;;0.90;99.90;;;;;;5017164;28;20203;-60
2023/03/02 08:39:29;;;;;;;31.38;15.48;;;0.90;99.90;;;;;;5016633;28;20199;-60
2023/03/02 08:41:57;;;;;;;22.58;14.65;;;1.00;99.90;;;;;;5016165;28;20196;-60
2023/03/02 08:44:24;;;;;;;21.27;12.20;;;1.00;99.90;;;;;;5015639;28;20301;-60
2023/03/02 08:46:51;;;;;;;23.60;14.23;;;1.10;99.90;;;;;;5014703;28;20281;-60
2023/03/02 08:49:19;;;;;;;23.55;13.75;;;1.20;99.90;;;;;;5015457;28;20208;-60
2023/03/02 08:51:47;;;;;;;25.33;13.80;;;1.20;99.90;;;;;;5014969;28;20219;-59
2023/03/02 08:54:15;;;;;;;23.05;13.32;;;1.30;99.90;;;;;;5014497;28;20231;-61
2023/03/02 08:56:43;;;;;;;23.50;12.90;;;1.30;99.90;;;;;;5016823;28;20207;-60
2023/03/02 08:59:13;;;;;;;25.38;13.20;;;1.20;99.90;;;;;;5019503;28;20257;-61
2023/03/02 09:01:41;;;;;;;25.48;14.27;;;1.20;99.90;;;;;;5018550;28;20184;-59
2023/03/02 09:04:09;;;;;;;24.85;13.90;;;1.20;99.90;;;;;;5018532;28;20223;-60
2023/03/02 09:06:38;;;;;;;20.38;12.25;;;1.20;99.90;;;;;;5018032;28;20206;-59
2023/03/02 09:09:06;;;;;;;25.05;13.52;;;1.20;99.90;;;;;;5017965;28;20222;-59
2023/03/02 09:11:33;;;;;;;27.92;13.57;;;1.30;99.90;;;;;;5018959;28;20230;-60
2023/03/02 09:14:00;;;;;;;20.15;12.88;;;1.30;99.90;;;;;;5018373;28;20565;-59
2023/03/02 09:16:28;;;;;;;20.77;13.07;;;1.20;99.90;;;;;;5018316;28;20203;-59
2023/03/02 09:18:55;;;;;;;23.75;13.00;;;1.20;99.90;;;;;;5018373;28;20214;-60
2023/03/02 09:21:22;;;;;;;22.83;15.10;;;1.20;99.90;;;;;;5017267;28;20691;-60
2023/03/02 09:23:52;;;;;;;22.38;12.50;;;1.30;99.90;;;;;;5017221;28;20227;-59
2023/03/02 09:26:19;;;;;;;24.35;13.75;;;1.40;99.90;;;;;;5018468;28;20211;-59
2023/03/02 09:28:46;;;;;;;20.17;13.00;;;1.40;99.90;;;;;;5017134;28;20207;-60
2023/03/02 09:31:13;;;;;;;29.73;14.25;;;1.50;99.90;;;;;;5016845;28;20234;-59
2023/03/02 09:33:41;;;;;;;23.67;13.45;;;1.60;99.90;;;;;;5017133;28;20231;-60
2023/03/02 09:36:10;;;;;;;21.70;12.57;;;1.70;99.90;;;;;;5020914;28;20203;-61
2023/03/02 09:38:37;;;;;;;19.95;12.65;;;1.70;99.90;;;;;;5017413;28;20673;-62
2023/03/02 09:41:31;;;;;;;18.27;12.98;;;1.80;99.90;;;;;;5019624;28;20290;-58
2023/03/02 09:44:09;;;;;;;22.08;14.30;;;1.80;99.90;;;;;;5016543;28;20230;-61
2023/03/02 09:46:44;;;;;;;21.02;11.38;;;1.70;99.90;;;;;;5017324;28;20191;-61
2023/03/02 09:49:20;;;;;;;16.75;12.82;;;1.70;99.90;;;;;;5017161;28;20366;-61
2023/03/02 09:51:59;;;;;;;20.80;12.68;;;1.80;99.90;;;;;;5023140;28;20708;-59
2023/03/02 09:54:25;;;;;;;19.67;12.90;;;1.80;99.90;;;;;;5017116;28;20222;-60
2023/03/02 09:56:56;;;;;;;21.60;12.30;;;1.80;99.90;;;;;;5017051;28;20290;-61
2023/03/02 09:59:27;;;;;;;21.95;11.50;;;1.80;99.90;;;;;;5016798;28;20210;-61
2023/03/02 10:02:00;;;;;;;20.17;11.98;;;1.80;99.90;;;;;;5017169;28;20198;-60
2023/03/02 10:04:31;;;;;;;20.25;12.38;;;1.70;99.90;;;;;;5016531;28;20245;-60
2023/03/02 10:07:10;;;;;;;19.50;13.10;;;1.70;99.90;;;;;;5016884;28;20559;-61
2023/03/02 10:09:37;;;;;;;21.85;11.73;;;1.80;99.90;;;;;;5016087;28;20258;-61
2023/03/02 10:12:28;;;;;;;20.50;13.65;;;1.90;99.90;;;;;;5016498;28;20223;-61
2023/03/02 10:14:59;;;;;;;15.60;10.82;;;2.00;99.90;;;;;;5017268;28;20191;-61
2023/03/02 10:17:39;;;;;;;15.50;11.10;;;2.20;99.90;;;;;;5017054;28;20294;-61
2023/03/02 10:20:14;;;;;;;14.52;10.55;;;2.60;99.90;;;;;;5016242;28;20186;-60
2023/03/02 10:22:46;;;;;;;15.98;10.85;;;2.90;99.90;;;;;;5015992;28;20708;-60
2023/03/02 10:25:24;;;;;;;17.95;10.02;;;3.20;99.90;;;;;;5016302;28;20187;-61
2023/03/02 10:27:55;;;;;;;17.38;10.35;;;3.40;99.90;;;;;;5019545;28;20186;-60
2023/03/02 10:30:29;;;;;;;15.20;10.00;;;3.60;99.90;;;;;;5019337;28;20198;-61
2023/03/02 10:33:01;;;;;;;18.70;11.95;;;3.70;99.90;;;;;;5018961;28;20644;-61
2023/03/02 10:35:31;;;;;;;14.48;10.02;;;3.60;99.90;;;;;;5017540;28;20191;-61
2023/03/02 10:38:07;;;;;;;19.63;11.75;;;3.50;99.90;;;;;;5019662;28;20199;-61
2023/03/02 10:40:41;;;;;;;14.20;11.02;;;3.40;99.90;;;;;;5017383;28;20198;-60
2023/03/02 10:43:17;;;;;;;15.85;10.75;;;3.40;99.90;;;;;;5016563;28;20226;-60
2023/03/02 10:45:46;;;;;;;15.00;11.40;;;3.30;99.90;;;;;;5017101;28;20259;-60
2023/03/02 10:48:14;;;;;;;16.92;11.07;;;3.40;99.90;;;;;;5016862;28;20195;-63
2023/03/02 10:50:44;;;;;;;22.52;12.25;;;3.50;99.90;;;;;;5016375;28;20206;-61
2023/03/02 10:53:18;;;;;;;17.40;11.82;;;3.60;99.90;;;;;;5015813;28;20230;-61
2023/03/02 10:55:47;;;;;;;15.55;11.02;;;3.70;99.90;;;;;;5016242;28;20597;-61
2023/03/02 10:58:24;;;;;;;15.20;10.70;;;3.60;99.90;;;;;;5015461;28;20722;-60
2023/03/02 11:00:59;;;;;;;16.58;12.45;;;3.60;99.90;;;;;;5015988;28;20187;-60
2023/03/02 11:03:26;;;;;;;20.35;13.98;;;3.50;99.90;;;;;;5015657;28;20237;-60
2023/03/02 11:05:56;;;;;;;16.70;11.77;;;3.50;99.90;;;;;;5015807;28;20234;-62
2023/03/02 11:08:25;;;;;;;16.10;11.43;;;3.50;99.90;;;;;;5016216;28;20209;-61
2023/03/02 11:11:06;;;;;;;23.40;12.23;;;3.70;99.90;;;;;;5015916;28;20228;-60
2023/03/02 11:13:35;;;;;;;16.42;12.38;;;3.90;99.90;;;;;;5016618;28;20238;-60
2023/03/02 11:16:04;;;;;;;19.35;12.43;;;4.00;99.90;;;;;;5016802;28;20203;-60
2023/03/02 11:18:36;;;;;;;19.20;13.73;;;4.20;99.90;;;;;;5016994;28;20203;-61
2023/03/02 11:21:08;;;;;;;20.63;12.10;;;4.40;99.90;;;;;;5020531;28;20211;-61
2023/03/02 11:23:45;;;;;;;17.08;12.82;;;4.50;99.90;;;;;;5024904;28;20301;-61
2023/03/02 11:26:20;;;;;;;18.45;11.95;;;4.50;99.90;;;;;;5020853;28;20668;-60
2023/03/02 11:28:52;;;;;;;19.67;13.73;;;4.50;99.90;;;;;;5021956;28;20197;-62
2023/03/02 11:31:27;;;;;;;20.40;14.18;;;4.50;99.90;;;;;;5024134;28;20210;-61
2023/03/02 11:34:05;;;;;;;22.15;14.35;;;4.50;99.90;;;;;;5020749;28;20223;-61
2023/03/02 11:36:44;;;;;;;18.60;13.52;;;4.50;99.90;;;;;;5019890;28;20219;-61
2023/03/02 11:39:16;;;;;;;21.77;14.65;;;4.60;99.90;;;;;;5022023;28;20197;-60
2023/03/02 11:41:43;;;;;;;22.17;15.02;;;4.60;99.90;;;;;;5022247;28;20247;-60
2023/03/02 11:44:16;;;;;;;20.40;15.10;;;4.60;99.90;;;;;;5021039;28;20235;-61
2023/03/02 11:46:48;;;;;;;23.55;14.80;;;4.70;99.90;;;;;;5081976;23;20324;-65
2023/03/02 11:49:21;;;;;;;23.00;15.55;;;4.80;99.90;;;;;;5053956;28;20239;-64
2023/03/02 11:51:56;;;;;;;18.63;14.80;;;5.00;99.90;;;;;;5054876;28;20210;-66
2023/03/02 11:54:35;;;;;;;23.92;15.55;;;5.00;99.90;;;;;;5054594;28;20197;-66
2023/03/02 11:57:03;;;;;;;21.30;14.40;;;5.00;99.90;;;;;;5054481;28;20225;-66
2023/03/02 11:59:31;;;;;;;25.90;17.15;;;5.00;99.90;;;;;;5054206;28;20205;-65
2023/03/02 12:02:00;;;;;;;20.48;15.43;;;4.90;99.90;;;;;;5054021;28;20209;-65
2023/03/02 12:04:31;;;;;;;22.00;14.73;;;4.90;99.90;;;;;;5053783;28;20761;-65
2023/03/02 12:06:59;;;;;;;22.67;15.65;;;5.00;99.90;;;;;;5054838;28;20230;-65
2023/03/02 12:09:35;;;;;;;23.73;15.88;;;5.00;99.90;;;;;;5054258;28;20206;-64
2023/03/02 12:12:31;;;;;;;22.02;15.50;;;5.10;99.90;;;;;;5053943;28;20710;-64
2023/03/02 12:14:58;;;;;;;20.02;13.82;;;5.40;99.90;;;;;;5053999;28;20578;-65
2023/03/02 12:17:33;;;;;;;20.83;13.90;;;5.60;99.90;;;;;;5053872;28;20232;-64
2023/03/02 12:20:33;;;;;;;21.92;14.38;;;5.60;99.90;;;;;;5054261;28;20246;-65
2023/03/02 12:23:10;;;;;;;18.92;14.20;;;5.60;99.90;;;;;;4992438;28;20180;-68
2023/03/02 12:25:48;;;;;;;19.92;14.65;;;5.60;99.90;;;;;;4992954;28;20223;-63
2023/03/02 12:28:27;;;;;;;29.05;15.90;;;5.50;99.90;;;;;;5028074;28;20201;-64
2023/03/02 12:31:06;;;;;;;24.27;16.90;;;5.30;99.90;;;;;;5053598;28;20662;-66
2023/03/02 12:33:37;;;;;;;22.42;14.63;;;5.10;99.90;;;;;;5057685;28;20233;-66
2023/03/02 12:36:11;;;;;;;24.83;15.80;;;5.10;99.90;;;;;;5058434;28;20225;-67
2023/03/02 12:38:44;;;;;;;19.00;13.40;;;5.20;99.90;;;;;;5057849;28;20213;-64
2023/03/02 12:41:34;;;;;;;19.20;14.00;;;5.50;99.90;;;;;;5058009;28;20576;-66
2023/03/02 12:44:34;;;;;;;21.88;15.45;;;5.60;99.90;;;;;;5058010;28;20274;-64
2023/03/02 12:47:01;;;;;;;23.60;16.40;;;5.70;99.90;;;;;;5055628;28;20718;-64
2023/03/02 12:49:44;;;;;;;21.73;16.05;;;5.60;99.90;;;;;;5058206;28;20209;-65
2023/03/02 12:52:26;;;;;;;22.73;16.58;;;5.60;99.90;;;;;;5057117;28;20611;-61